Terminal Aerodrome Forecast
Issued by NWS Twin Cities, MN

Home | Current Version | Previous Version | Graphics & Text | Print | Product List | Glossary On
Versions: 1 2 3 4 5 6 7 8 9 10 11 12 13 14 15 16 17 18 19 20 21 22 23 24 25 26 27 28 29 30 31 32 33 34 35 36
000
FTUS43 KMPX 261120
TAFMSP
TAF
KMSP 261120Z 2612/2718 30011G19KT P6SM BKN035
     FM261500 32012G20KT P6SM BKN040
     FM270000 34008KT P6SM SKC
     FM270900 02003KT P6SM SKC=

USA.gov is the U.S. government's official web portal to all federal, state and local government web resources and services.